Messwerte Scammon Bay

Temperatur

Temperatur
°C
1573617600 19.00 19.00 -1
1573621200 20.00 20.00 -2
1573624800 21.00 21.00 -2
1573628400 22.00 22.00 -3
1573632000 23.00 23.00 -3
1573635600 0.00 0.00 -3
1573639200 1.00 1.00 -4
1573642800 2.00 2.00 -4
1573646400 3.00 3.00
1573650000 4.00 4.00 -5
1573653600 5.00 5.00 -5
1573657200 6.00 6.00 -6
1573660800 7.00 7.00 -6
1573664400 8.00 8.00 -6
1573668000 9.00 9.00 -7
1573671600 10.00 10.00
1573675200 11.00 11.00 -8
1573678800 12.00 12.00 -7
1573682400 13.00 13.00 -7
1573686000 14.00 14.00 -7
1573689600 15.00 15.00 -8
1573693200 16.00 16.00 -8
1573696800 17.00 17.00 -9
1573700400 18.00 18.00 -9

Aktuellste Messwerte

Wettercharakter
Wetter: klar
Temperatur
-9 °C
Feuchtigkeit
65 %
Wind
40 km/hWindrichtung: Nordost
Böen
45 km/h
Luftdruck
1005 hPa
Messzeit: 13. November 2019, 20.00Datenquelle: METAR

Weitere Messstationen in der Nähe

Messstation Temperatur Entfernung
Cape Romanzoff -10 °C 25 km
Hooper Bay -9 °C 48 km
Mountain Village - 103 km
St. Mary's -14 °C 121 km
Toksook Bay - 149 km
Russian Mission -13 °C 223 km
Bethel -14 °C 233 km

Wind

Windrichtung Böen Mittelwind
° km/h km/h
1573617600 19.00 18.00 - 19.00 100° 10
1573621200 20.00 19.00 - 20.00 70° 20
1573624800 21.00 20.00 - 21.00 60° 20
1573628400 22.00 21.00 - 22.00 60° 20
1573632000 23.00 22.00 - 23.00 60° 20
1573635600 0.00 23.00 - 0.00 60° 25
1573639200 1.00 0.00 - 1.00 50° 35 25
1573642800 2.00 1.00 - 2.00 50° 20
1573646400 3.00 2.00 - 3.00
1573650000 4.00 3.00 - 4.00 50° 20
1573653600 5.00 4.00 - 5.00 60° 20
1573657200 6.00 5.00 - 6.00 50° 40 30
1573660800 7.00 6.00 - 7.00 60° 20
1573664400 8.00 7.00 - 8.00 50° 20
1573668000 9.00 8.00 - 9.00 40° 25
1573671600 10.00 9.00 - 10.00
1573675200 11.00 10.00 - 11.00 40° 25
1573678800 12.00 11.00 - 12.00 40° 45 35
1573682400 13.00 12.00 - 13.00 30° 45 40
1573686000 14.00 13.00 - 14.00 30° 45 35
1573689600 15.00 14.00 - 15.00 30° 55 35
1573693200 16.00 15.00 - 16.00 20° 50 45
1573696800 17.00 16.00 - 17.00 20° 65 45
1573700400 18.00 17.00 - 18.00 30° 55 45

Ihre Wetterstation

Fehlt Ihre Wetterstation auf unserem Portal?

Schreiben Sie an network@meteonews.ch